Time;durP1;ratioP1;P1;durP2;ratioP2;P2;SDS_P1;SDS_P2;PMS_P1;PMS_P2;Temp;Humidity;BMP_temperature;BMP_pressure;BME280_temperature;BME280_humidity;BME280_pressure;Samples;Min_cycle;Max_cycle;Signal;HPM_P1;HPM_P2
2021/12/29 00:00:24;;;;;;;41.50;11.20;;;11.10;99.90;;;;;;5111921;28;20408;-74
2021/12/29 00:02:50;;;;;;;39.13;11.25;;;11.10;99.90;;;;;;5139336;27;20456;-74
2021/12/29 00:05:16;;;;;;;40.63;11.10;;;11.10;99.90;;;;;;5113022;27;20880;-74
2021/12/29 00:07:42;;;;;;;36.90;10.38;;;11.10;99.90;;;;;;5110518;28;20419;-74
2021/12/29 00:10:10;;;;;;;37.83;10.38;;;11.10;99.90;;;;;;5109659;28;20869;-73
2021/12/29 00:12:41;;;;;;;41.10;11.07;;;11.10;99.90;;;;;;5108724;28;21347;-74
2021/12/29 00:15:08;;;;;;;35.72;11.65;;;11.10;99.90;;;;;;5111411;28;20403;-74
2021/12/29 00:17:34;;;;;;;44.30;11.80;;;11.10;99.90;;;;;;5109311;28;20399;-75
2021/12/29 00:20:00;;;;;;;49.83;12.32;;;11.10;99.90;;;;;;5111216;27;20399;-74
2021/12/29 00:22:26;;;;;;;36.53;12.73;;;11.10;99.90;;;;;;5107009;27;20443;-74
2021/12/29 00:24:51;;;;;;;47.72;14.15;;;11.10;99.90;;;;;;5109751;28;20938;-75
2021/12/29 00:27:17;;;;;;;43.87;13.73;;;11.10;99.90;;;;;;5113982;27;20415;-72
2021/12/29 00:29:43;;;;;;;41.45;14.45;;;11.10;99.90;;;;;;5111298;28;20473;-72
2021/12/29 00:32:27;;;;;;;49.65;15.85;;;11.20;99.90;;;;;;5104184;28;20419;-72
2021/12/29 00:35:14;;;;;;;45.72;14.65;;;11.10;99.90;;;;;;5111956;27;20914;-73
2021/12/29 00:37:59;;;;;;;41.67;12.83;;;11.10;99.90;;;;;;5108355;27;20403;-73
2021/12/29 00:40:44;;;;;;;41.30;12.95;;;11.10;99.90;;;;;;5117969;27;20467;-74
2021/12/29 00:43:28;;;;;;;41.75;12.43;;;11.10;99.90;;;;;;5118443;27;20422;-73
2021/12/29 00:46:14;;;;;;;36.38;11.48;;;11.10;99.90;;;;;;5108459;28;20427;-73
2021/12/29 00:48:43;;;;;;;38.50;12.03;;;11.10;99.90;;;;;;5111033;28;20404;-76
2021/12/29 00:51:10;;;;;;;39.47;13.15;;;11.10;99.90;;;;;;5090658;28;20447;-72
2021/12/29 00:53:36;;;;;;;43.15;14.13;;;11.10;99.90;;;;;;5111145;27;20899;-73
2021/12/29 00:56:03;;;;;;;41.30;12.77;;;11.10;99.90;;;;;;5117167;27;20773;-74
2021/12/29 00:58:29;;;;;;;43.63;14.25;;;11.20;99.90;;;;;;5112735;27;20400;-74
2021/12/29 01:00:56;;;;;;;49.83;14.45;;;11.10;99.90;;;;;;5108991;27;20491;-72
2021/12/29 01:03:21;;;;;;;42.80;15.02;;;11.20;99.90;;;;;;5105584;28;20549;-73
2021/12/29 01:05:47;;;;;;;45.95;14.82;;;11.20;99.90;;;;;;5119855;27;20497;-73
2021/12/29 01:08:13;;;;;;;52.70;15.83;;;11.20;99.90;;;;;;5110626;28;20403;-73
2021/12/29 01:10:41;;;;;;;58.78;17.17;;;11.20;99.90;;;;;;5109338;28;20411;-74
2021/12/29 01:13:09;;;;;;;49.85;16.95;;;11.20;99.90;;;;;;5106427;27;20434;-73
2021/12/29 01:15:56;;;;;;;50.63;16.73;;;11.20;99.90;;;;;;5108275;27;20412;-74
2021/12/29 01:18:22;;;;;;;52.10;16.80;;;11.20;99.90;;;;;;5110382;27;20403;-74
2021/12/29 01:20:48;;;;;;;58.37;17.23;;;11.20;99.90;;;;;;5108197;27;20396;-74
2021/12/29 01:23:14;;;;;;;57.63;18.63;;;11.20;99.90;;;;;;5124658;27;20416;-74
2021/12/29 01:25:39;;;;;;;69.30;19.30;;;11.20;99.90;;;;;;5106838;28;20465;-74
2021/12/29 01:28:05;;;;;;;59.25;19.30;;;11.20;99.90;;;;;;5108291;27;20491;-75
2021/12/29 01:30:31;;;;;;;61.50;19.07;;;11.20;99.90;;;;;;5115417;27;20892;-74
2021/12/29 01:32:57;;;;;;;71.35;20.85;;;11.30;99.90;;;;;;5107387;27;20406;-74
2021/12/29 01:35:22;;;;;;;73.90;19.97;;;11.30;99.90;;;;;;5117370;27;21217;-73
2021/12/29 01:37:48;;;;;;;63.97;20.00;;;11.20;99.90;;;;;;5089596;28;20413;-74
2021/12/29 01:40:17;;;;;;;65.93;19.20;;;11.30;99.90;;;;;;5106833;27;20420;-74
2021/12/29 01:42:43;;;;;;;67.47;18.45;;;11.30;99.90;;;;;;5109193;27;20924;-74
2021/12/29 01:45:10;;;;;;;64.10;18.98;;;11.20;99.90;;;;;;5108874;27;20423;-74
2021/12/29 01:47:37;;;;;;;71.72;21.00;;;11.30;99.90;;;;;;5114692;27;20786;-73
2021/12/29 01:50:04;;;;;;;67.47;19.30;;;11.20;99.90;;;;;;5112761;27;20397;-73
2021/12/29 01:52:36;;;;;;;74.45;18.80;;;11.20;99.90;;;;;;5107906;28;20929;-74
2021/12/29 01:55:04;;;;;;;65.80;18.17;;;11.20;99.90;;;;;;5109107;28;20475;-74
2021/12/29 01:57:29;;;;;;;71.65;19.52;;;11.20;99.90;;;;;;5110846;27;20398;-74
2021/12/29 01:59:55;;;;;;;76.25;18.50;;;11.20;99.90;;;;;;5112119;27;20389;-74
2021/12/29 02:02:21;;;;;;;70.53;17.77;;;11.30;99.90;;;;;;5106512;27;20447;-74
2021/12/29 02:04:47;;;;;;;75.57;18.57;;;11.30;99.90;;;;;;5108213;28;20416;-74
2021/12/29 02:07:13;;;;;;;60.92;17.33;;;11.30;99.90;;;;;;5107369;28;20541;-74
2021/12/29 02:09:39;;;;;;;64.63;16.83;;;11.30;99.90;;;;;;5109009;28;20487;-74
2021/12/29 02:12:05;;;;;;;66.63;16.52;;;11.30;99.90;;;;;;5106121;28;20419;-74
2021/12/29 02:14:32;;;;;;;62.97;14.98;;;11.30;99.90;;;;;;5111932;27;20412;-73
2021/12/29 02:16:59;;;;;;;53.13;13.95;;;11.30;99.90;;;;;;5104451;27;20412;-73
2021/12/29 02:19:26;;;;;;;63.20;13.73;;;11.30;99.90;;;;;;5116656;27;20907;-74
2021/12/29 02:22:12;;;;;;;56.90;13.93;;;11.30;99.90;;;;;;5139815;27;20764;-75
2021/12/29 02:24:43;;;;;;;50.85;11.07;;;11.30;99.90;;;;;;5105098;28;20419;-73
2021/12/29 02:27:12;;;;;;;44.47;8.80;;;11.30;99.90;;;;;;5109168;27;20455;-74
2021/12/29 02:29:40;;;;;;;35.10;7.93;;;11.30;99.90;;;;;;5117366;27;20396;-73
2021/12/29 02:32:06;;;;;;;30.77;6.57;;;11.30;99.90;;;;;;5107041;27;20542;-73
2021/12/29 02:34:33;;;;;;;29.25;6.15;;;11.40;99.90;;;;;;5111451;27;20400;-74
2021/12/29 02:37:02;;;;;;;26.63;5.33;;;11.30;99.90;;;;;;5104751;28;20428;-74
2021/12/29 02:39:30;;;;;;;32.53;5.55;;;11.30;99.90;;;;;;5108685;27;20420;-73
2021/12/29 02:41:56;;;;;;;29.90;5.22;;;11.30;99.90;;;;;;5107983;27;20768;-74
2021/12/29 02:44:27;;;;;;;28.88;4.95;;;11.30;99.90;;;;;;5111933;27;20411;-75
2021/12/29 02:46:55;;;;;;;29.55;5.05;;;11.30;99.90;;;;;;5110369;27;20400;-74
2021/12/29 02:49:21;;;;;;;34.70;5.73;;;11.40;99.90;;;;;;5114886;27;20407;-75
2021/12/29 02:51:47;;;;;;;37.53;5.95;;;11.40;99.90;;;;;;5107619;27;20457;-74
2021/12/29 02:54:14;;;;;;;37.20;6.25;;;11.40;99.90;;;;;;5118077;27;21095;-73
2021/12/29 02:56:39;;;;;;;35.95;5.47;;;11.40;99.90;;;;;;5113946;27;20489;-74
2021/12/29 02:59:05;;;;;;;37.83;5.90;;;11.40;99.90;;;;;;5098691;28;20495;-74
2021/12/29 03:01:31;;;;;;;34.83;5.37;;;11.40;99.90;;;;;;5108380;27;20418;-74
2021/12/29 03:03:58;;;;;;;41.78;5.55;;;11.40;99.90;;;;;;5113594;27;20427;-74
2021/12/29 03:06:24;;;;;;;37.97;5.40;;;11.30;99.90;;;;;;5110207;27;20414;-74
2021/12/29 03:08:51;;;;;;;40.17;5.55;;;11.30;99.90;;;;;;5117729;27;20452;-74
2021/12/29 03:11:17;;;;;;;31.35;5.38;;;11.30;99.90;;;;;;5117876;28;20519;-73
2021/12/29 03:13:43;;;;;;;38.17;6.13;;;11.30;99.90;;;;;;5116576;28;20412;-74
2021/12/29 03:16:10;;;;;;;43.50;6.15;;;11.30;99.90;;;;;;5108115;28;20410;-73
2021/12/29 03:18:36;;;;;;;39.92;6.80;;;11.30;99.90;;;;;;5125792;28;20390;-73
2021/12/29 03:21:03;;;;;;;39.05;6.85;;;11.30;99.90;;;;;;5113145;28;20418;-74
2021/12/29 03:23:29;;;;;;;46.17;7.10;;;11.30;99.90;;;;;;5104572;28;20400;-73
2021/12/29 03:25:54;;;;;;;45.17;7.27;;;11.30;99.90;;;;;;5112337;28;20412;-75
2021/12/29 03:28:22;;;;;;;47.15;6.97;;;11.40;99.90;;;;;;5110051;28;20602;-73
2021/12/29 03:30:52;;;;;;;43.73;6.80;;;11.30;99.90;;;;;;5109660;28;20384;-74
2021/12/29 03:33:19;;;;;;;41.65;6.78;;;11.40;99.90;;;;;;5116200;27;20435;-73
2021/12/29 03:35:51;;;;;;;41.38;6.60;;;11.40;99.90;;;;;;5109717;27;20411;-75
2021/12/29 03:38:21;;;;;;;35.10;6.90;;;11.40;99.90;;;;;;5109904;27;20416;-74
2021/12/29 03:40:47;;;;;;;41.83;7.30;;;11.30;99.90;;;;;;5105714;28;20847;-73
2021/12/29 03:43:13;;;;;;;39.20;6.78;;;11.30;99.90;;;;;;5118433;27;20410;-74
2021/12/29 03:45:41;;;;;;;33.53;7.00;;;11.30;99.90;;;;;;5112724;27;20408;-73
2021/12/29 03:48:09;;;;;;;31.40;5.90;;;11.30;99.90;;;;;;5127183;27;20451;-74
2021/12/29 03:50:35;;;;;;;37.28;6.60;;;11.40;99.90;;;;;;5098560;27;20408;-74
2021/12/29 03:53:01;;;;;;;32.47;6.25;;;11.30;99.90;;;;;;5108215;27;20428;-73
2021/12/29 03:55:27;;;;;;;38.90;6.00;;;11.30;99.90;;;;;;5112930;27;20435;-75
2021/12/29 03:57:52;;;;;;;38.27;5.43;;;11.30;99.90;;;;;;5115787;27;20462;-75
2021/12/29 04:00:19;;;;;;;44.45;5.40;;;11.40;99.90;;;;;;5121864;27;20402;-75
2021/12/29 04:02:45;;;;;;;35.50;5.60;;;11.30;99.90;;;;;;5113162;27;20410;-74
2021/12/29 04:05:14;;;;;;;36.10;5.72;;;11.30;99.90;;;;;;5111774;27;20475;-75
2021/12/29 04:07:40;;;;;;;36.00;6.07;;;11.30;99.90;;;;;;5110565;27;20419;-74
2021/12/29 04:10:07;;;;;;;35.50;5.47;;;11.30;99.90;;;;;;5112817;27;20410;-76
2021/12/29 04:12:33;;;;;;;23.33;4.30;;;11.30;99.90;;;;;;5112729;27;20456;-74
2021/12/29 04:14:59;;;;;;;21.10;3.20;;;11.20;99.90;;;;;;5112787;27;20473;-74
2021/12/29 04:17:30;;;;;;;21.43;3.73;;;11.20;99.90;;;;;;5120945;27;20417;-75
2021/12/29 04:22:40;;;;;;;28.27;4.47;;;11.20;99.90;;;;;;5111312;27;20505;-75
2021/12/29 04:25:06;;;;;;;32.05;4.50;;;11.10;99.90;;;;;;5096169;27;20901;-75
2021/12/29 04:27:32;;;;;;;39.55;4.18;;;11.10;99.90;;;;;;5113135;27;20408;-76
2021/12/29 04:29:58;;;;;;;27.80;4.00;;;11.10;99.90;;;;;;5093033;28;20407;-75
2021/12/29 04:32:24;;;;;;;31.35;4.43;;;11.10;99.90;;;;;;5109259;28;20419;-74
2021/12/29 04:34:50;;;;;;;35.08;4.00;;;11.10;99.90;;;;;;5105001;28;20772;-76
2021/12/29 04:37:16;;;;;;;38.67;4.28;;;11.10;99.90;;;;;;5111702;27;20441;-76
2021/12/29 04:39:41;;;;;;;45.27;4.43;;;11.10;99.90;;;;;;5111997;27;20500;-76
2021/12/29 04:42:07;;;;;;;34.75;4.60;;;11.10;99.90;;;;;;5110815;27;20422;-76
2021/12/29 04:44:33;;;;;;;43.25;5.03;;;11.20;99.90;;;;;;5092569;28;20465;-76
2021/12/29 04:46:59;;;;;;;39.77;4.77;;;11.20;99.90;;;;;;5111546;27;20919;-75
2021/12/29 04:49:28;;;;;;;46.17;5.07;;;11.20;99.90;;;;;;5092908;27;20438;-76
2021/12/29 04:52:02;;;;;;;42.10;5.25;;;11.20;99.90;;;;;;5115099;27;20942;-77
2021/12/29 04:54:29;;;;;;;49.27;5.00;;;11.20;99.90;;;;;;5120151;27;20880;-75
2021/12/29 04:56:55;;;;;;;48.40;5.38;;;11.20;99.90;;;;;;5115453;27;20400;-74
2021/12/29 04:59:22;;;;;;;41.38;5.10;;;11.20;99.90;;;;;;5108807;28;20396;-74
2021/12/29 05:01:48;;;;;;;44.10;5.50;;;11.20;99.90;;;;;;5104524;28;20420;-74
2021/12/29 05:04:21;;;;;;;46.30;6.18;;;11.10;99.90;;;;;;5110672;28;20414;-75
2021/12/29 05:09:31;;;;;;;41.22;5.40;;;11.10;99.90;;;;;;5109409;28;20408;-75
2021/12/29 05:11:59;;;;;;;44.53;5.93;;;11.20;99.90;;;;;;5116415;27;20412;-75
2021/12/29 05:14:24;;;;;;;42.70;5.65;;;11.10;99.90;;;;;;5110285;28;20421;-76
2021/12/29 05:16:50;;;;;;;43.10;5.93;;;11.20;99.90;;;;;;5113136;27;20896;-75
2021/12/29 05:19:16;;;;;;;43.35;5.50;;;11.20;99.90;;;;;;5112544;27;20964;-75
2021/12/29 05:21:41;;;;;;;43.93;5.70;;;11.10;99.90;;;;;;5110418;27;20772;-74
2021/12/29 05:24:07;;;;;;;42.78;5.78;;;11.20;99.90;;;;;;5118621;27;20486;-75
2021/12/29 05:26:33;;;;;;;41.53;5.20;;;11.20;99.90;;;;;;5126188;27;20894;-76
2021/12/29 05:28:59;;;;;;;38.80;5.30;;;11.10;99.90;;;;;;5114974;27;20478;-77
2021/12/29 05:31:25;;;;;;;48.37;7.07;;;11.10;99.90;;;;;;5110386;27;20410;-76
2021/12/29 05:33:51;;;;;;;46.27;6.23;;;11.10;99.90;;;;;;5110229;27;20412;-75
2021/12/29 05:36:16;;;;;;;44.35;6.05;;;11.10;99.90;;;;;;5110345;27;20403;-73
2021/12/29 05:38:42;;;;;;;43.38;6.00;;;11.10;99.90;;;;;;5110094;27;20411;-72
2021/12/29 05:41:08;;;;;;;35.93;6.03;;;11.10;99.90;;;;;;5115820;27;20908;-72
2021/12/29 05:43:34;;;;;;;41.20;6.18;;;11.20;99.90;;;;;;5107454;27;21225;-74
2021/12/29 05:46:00;;;;;;;41.33;5.97;;;11.20;99.90;;;;;;5107234;28;20414;-73
2021/12/29 05:48:25;;;;;;;39.28;5.70;;;11.20;99.90;;;;;;5092673;27;20401;-72
2021/12/29 05:50:51;;;;;;;41.20;5.67;;;11.20;99.90;;;;;;5103905;28;20403;-73
2021/12/29 05:53:17;;;;;;;42.03;5.80;;;11.10;99.90;;;;;;5108112;28;20461;-73
2021/12/29 05:55:42;;;;;;;46.50;6.65;;;11.10;99.90;;;;;;5107024;28;20396;-73
2021/12/29 05:58:10;;;;;;;40.67;5.37;;;11.20;99.90;;;;;;5108631;28;20411;-75
2021/12/29 06:00:37;;;;;;;43.17;5.97;;;11.20;99.90;;;;;;5113463;27;20453;-74
2021/12/29 06:03:03;;;;;;;39.85;5.88;;;11.20;99.90;;;;;;5108245;27;20490;-73
2021/12/29 06:05:29;;;;;;;46.30;5.63;;;11.10;99.90;;;;;;5105345;27;20930;-74
2021/12/29 06:07:55;;;;;;;42.97;6.03;;;11.20;99.90;;;;;;5103462;28;20398;-73
2021/12/29 06:10:20;;;;;;;45.22;6.38;;;11.20;99.90;;;;;;5118451;27;20408;-72
2021/12/29 06:12:47;;;;;;;27.00;5.50;;;11.20;99.90;;;;;;5089192;28;20446;-71
2021/12/29 06:15:13;;;;;;;34.67;6.10;;;11.20;99.90;;;;;;5105775;28;20431;-72
2021/12/29 06:17:39;;;;;;;36.83;6.00;;;11.20;99.90;;;;;;5106997;27;20510;-71
2021/12/29 06:20:07;;;;;;;35.30;5.70;;;11.30;99.90;;;;;;5108464;28;20419;-72
2021/12/29 06:22:33;;;;;;;37.58;5.13;;;11.20;99.90;;;;;;5106210;27;20411;-72
2021/12/29 06:24:59;;;;;;;33.63;5.93;;;11.20;99.90;;;;;;5107718;28;20420;-72
2021/12/29 06:27:24;;;;;;;32.78;5.32;;;11.20;99.90;;;;;;5106316;27;21679;-73
2021/12/29 06:29:51;;;;;;;40.50;7.13;;;11.20;99.90;;;;;;5107821;28;20956;-71
2021/12/29 06:32:17;;;;;;;31.57;5.47;;;11.20;99.90;;;;;;5102165;28;20446;-75
2021/12/29 06:34:43;;;;;;;39.03;6.15;;;11.20;99.90;;;;;;5105873;28;20408;-72
2021/12/29 06:37:12;;;;;;;26.90;5.47;;;11.20;99.90;;;;;;5108824;27;20402;-74
2021/12/29 06:39:43;;;;;;;34.53;5.70;;;11.20;99.90;;;;;;5114549;27;20487;-73
2021/12/29 06:42:09;;;;;;;34.70;5.37;;;11.20;99.90;;;;;;5103769;28;20461;-73
2021/12/29 06:44:35;;;;;;;27.38;5.40;;;11.30;99.90;;;;;;5107515;28;20548;-75
2021/12/29 06:47:01;;;;;;;29.95;5.63;;;11.30;99.90;;;;;;5107388;27;20803;-73
2021/12/29 06:49:27;;;;;;;26.95;4.80;;;11.30;99.90;;;;;;5105748;27;20467;-75
2021/12/29 06:51:53;;;;;;;37.53;5.88;;;11.30;99.90;;;;;;5105899;28;20400;-72
2021/12/29 06:54:19;;;;;;;33.03;5.80;;;11.30;99.90;;;;;;5107781;28;20433;-74
2021/12/29 06:56:44;;;;;;;26.77;5.35;;;11.20;99.90;;;;;;5090071;28;20478;-74
2021/12/29 06:59:10;;;;;;;33.70;5.70;;;11.30;99.90;;;;;;5110602;27;20454;-72
2021/12/29 07:01:36;;;;;;;31.53;5.60;;;11.20;99.90;;;;;;5101090;28;20426;-73
2021/12/29 07:04:02;;;;;;;31.20;5.63;;;11.30;99.90;;;;;;5107262;27;20498;-74
2021/12/29 07:06:27;;;;;;;30.25;5.88;;;11.30;99.90;;;;;;5117380;27;20426;-74
2021/12/29 07:08:53;;;;;;;22.73;5.43;;;11.30;99.90;;;;;;5107704;28;20392;-73
2021/12/29 07:11:19;;;;;;;32.05;5.70;;;11.30;99.90;;;;;;5104507;28;20426;-73
2021/12/29 07:13:44;;;;;;;29.38;5.60;;;11.30;99.90;;;;;;5107223;28;20904;-72
2021/12/29 07:16:11;;;;;;;33.20;5.80;;;11.40;99.90;;;;;;5102989;28;20406;-74
2021/12/29 07:18:37;;;;;;;27.25;5.25;;;11.40;99.90;;;;;;5104854;28;20407;-72
2021/12/29 07:21:03;;;;;;;25.33;5.20;;;11.40;99.90;;;;;;5112442;28;20411;-73
2021/12/29 07:23:29;;;;;;;29.38;5.43;;;11.40;99.90;;;;;;5104378;28;20408;-73
2021/12/29 07:25:55;;;;;;;26.60;4.80;;;11.40;99.90;;;;;;5106008;28;20477;-73
2021/12/29 07:28:20;;;;;;;28.37;4.67;;;11.40;99.90;;;;;;5103476;28;20908;-72
2021/12/29 07:30:46;;;;;;;35.33;5.40;;;11.30;99.90;;;;;;5107373;27;20412;-72
2021/12/29 07:33:12;;;;;;;27.37;5.27;;;11.40;99.90;;;;;;5104543;28;20992;-71
2021/12/29 07:35:37;;;;;;;31.48;4.93;;;11.30;99.90;;;;;;5102849;28;21200;-71
2021/12/29 07:38:03;;;;;;;24.20;4.50;;;11.40;99.90;;;;;;5103761;28;20405;-70
2021/12/29 07:40:30;;;;;;;30.13;5.10;;;11.30;99.90;;;;;;5106544;28;20447;-72
2021/12/29 07:42:55;;;;;;;23.65;4.72;;;11.40;99.90;;;;;;5104809;28;21007;-72
2021/12/29 07:45:23;;;;;;;27.00;4.30;;;11.40;99.90;;;;;;5103250;28;20453;-72
2021/12/29 07:47:49;;;;;;;24.45;4.43;;;11.30;99.90;;;;;;5104563;28;20408;-70
2021/12/29 07:50:17;;;;;;;21.25;4.28;;;11.40;99.90;;;;;;5106111;28;20411;-72
2021/12/29 07:52:48;;;;;;;19.77;4.28;;;11.40;99.90;;;;;;5109005;28;20480;-70
2021/12/29 07:55:18;;;;;;;19.25;4.13;;;11.40;99.90;;;;;;5103292;28;20408;-74
2021/12/29 07:57:44;;;;;;;22.27;4.35;;;11.40;99.90;;;;;;5104803;28;20447;-75
2021/12/29 08:00:11;;;;;;;23.67;4.25;;;11.40;99.90;;;;;;5098087;28;20400;-72
2021/12/29 08:02:39;;;;;;;19.58;4.15;;;11.40;99.90;;;;;;5097426;28;20406;-72
2021/12/29 08:05:06;;;;;;;17.52;4.10;;;11.40;99.90;;;;;;5138057;27;20519;-73
2021/12/29 08:07:32;;;;;;;19.15;4.18;;;11.40;99.90;;;;;;5108140;28;20412;-75
2021/12/29 08:09:57;;;;;;;24.30;4.97;;;11.40;99.90;;;;;;5107005;28;20414;-75
2021/12/29 08:12:23;;;;;;;18.08;4.22;;;11.30;99.90;;;;;;5110904;27;20898;-73
2021/12/29 08:14:51;;;;;;;17.17;4.47;;;11.40;99.90;;;;;;5109657;27;20403;-74
2021/12/29 08:17:16;;;;;;;24.25;4.43;;;11.40;99.90;;;;;;5110205;27;20761;-75
2021/12/29 08:19:43;;;;;;;21.83;4.53;;;11.40;99.90;;;;;;5110647;28;20411;-74
2021/12/29 08:22:09;;;;;;;26.50;4.43;;;11.40;99.90;;;;;;5108046;27;20408;-74
2021/12/29 08:24:35;;;;;;;25.65;4.43;;;11.40;99.90;;;;;;5112889;27;20505;-75
2021/12/29 08:27:01;;;;;;;20.73;4.60;;;11.40;99.90;;;;;;5109310;27;20408;-73
2021/12/29 08:29:26;;;;;;;20.10;4.32;;;11.30;99.90;;;;;;5107099;28;20892;-73
2021/12/29 08:31:52;;;;;;;20.57;4.73;;;11.30;99.90;;;;;;5106889;28;20400;-71
2021/12/29 08:34:18;;;;;;;21.38;4.70;;;11.40;99.90;;;;;;5114196;27;21225;-73
2021/12/29 08:36:44;;;;;;;20.67;4.53;;;11.40;99.90;;;;;;5096575;28;21289;-74
2021/12/29 08:39:09;;;;;;;23.97;4.90;;;11.30;99.90;;;;;;5110296;28;20412;-73
2021/12/29 08:41:35;;;;;;;16.80;4.47;;;11.30;99.90;;;;;;5108402;28;20997;-73
2021/12/29 08:44:02;;;;;;;18.65;5.30;;;11.30;99.90;;;;;;5091372;28;20431;-73
2021/12/29 08:46:28;;;;;;;22.52;4.90;;;11.40;99.90;;;;;;5118792;27;20416;-72
2021/12/29 08:48:55;;;;;;;19.50;5.65;;;11.40;99.90;;;;;;5107972;28;20462;-73
2021/12/29 08:51:21;;;;;;;22.92;5.38;;;11.30;99.90;;;;;;5106908;28;20908;-73
2021/12/29 08:53:47;;;;;;;18.42;5.45;;;11.40;99.90;;;;;;5108370;27;20412;-74
2021/12/29 08:56:16;;;;;;;21.58;5.82;;;11.40;99.90;;;;;;5124373;27;20990;-73
2021/12/29 08:58:43;;;;;;;21.58;5.75;;;11.40;99.90;;;;;;5108858;28;20396;-73
2021/12/29 09:01:08;;;;;;;22.73;5.28;;;11.40;99.90;;;;;;5108374;27;20423;-73
2021/12/29 09:03:34;;;;;;;26.70;5.88;;;11.40;99.90;;;;;;5116066;27;20761;-73
2021/12/29 09:05:59;;;;;;;23.10;5.90;;;11.40;99.90;;;;;;5114232;27;21001;-73
2021/12/29 09:08:25;;;;;;;22.03;5.87;;;11.40;99.90;;;;;;5113093;27;20431;-72
2021/12/29 09:10:52;;;;;;;23.80;5.50;;;11.50;99.90;;;;;;5107543;28;20424;-72
2021/12/29 09:13:19;;;;;;;21.67;6.55;;;11.50;99.90;;;;;;5088617;28;20435;-74
2021/12/29 09:15:45;;;;;;;21.80;6.63;;;11.40;99.90;;;;;;5114084;27;20404;-74
2021/12/29 09:18:11;;;;;;;25.88;7.10;;;11.50;99.90;;;;;;5108614;27;20541;-75
2021/12/29 09:20:44;;;;;;;18.55;7.00;;;11.50;99.90;;;;;;5116381;27;20437;-73
2021/12/29 09:23:10;;;;;;;19.98;7.13;;;11.50;99.90;;;;;;5106978;28;20486;-74
2021/12/29 09:25:39;;;;;;;16.52;6.32;;;11.60;99.90;;;;;;5100616;28;20407;-71
2021/12/29 09:28:06;;;;;;;18.50;6.53;;;11.60;99.90;;;;;;5107048;28;20410;-73
2021/12/29 09:30:34;;;;;;;15.47;6.60;;;11.60;99.90;;;;;;5108498;28;20418;-72
2021/12/29 09:33:00;;;;;;;15.67;6.57;;;11.50;99.90;;;;;;5105590;28;20416;-74
2021/12/29 09:35:28;;;;;;;17.83;6.43;;;11.50;99.90;;;;;;5106227;27;20423;-75
2021/12/29 09:37:55;;;;;;;16.15;6.63;;;11.50;99.90;;;;;;5106001;28;20407;-72
2021/12/29 09:40:22;;;;;;;20.70;7.03;;;11.60;99.90;;;;;;5107739;27;20496;-73
2021/12/29 09:42:50;;;;;;;22.70;6.78;;;11.60;99.90;;;;;;5106193;28;20408;-72
2021/12/29 09:45:17;;;;;;;21.80;6.60;;;11.60;99.90;;;;;;5117330;27;20406;-73
2021/12/29 09:47:42;;;;;;;20.75;6.75;;;11.60;99.90;;;;;;5106364;28;20742;-74
2021/12/29 09:50:11;;;;;;;19.00;6.93;;;11.70;99.90;;;;;;5091026;28;20462;-74
2021/12/29 09:52:37;;;;;;;19.20;7.30;;;11.70;99.90;;;;;;5106459;27;21277;-73
2021/12/29 09:55:06;;;;;;;17.93;7.00;;;11.70;99.90;;;;;;5113009;27;20406;-72
2021/12/29 09:57:32;;;;;;;19.58;6.60;;;11.70;99.90;;;;;;5114638;27;20420;-73
2021/12/29 09:59:58;;;;;;;17.35;6.70;;;11.70;99.90;;;;;;5090197;28;20904;-73
2021/12/29 10:02:24;;;;;;;18.33;6.88;;;11.70;99.90;;;;;;5106486;28;20465;-73
2021/12/29 10:04:50;;;;;;;20.57;7.50;;;11.60;99.90;;;;;;5085459;28;20417;-74
2021/12/29 10:07:19;;;;;;;18.33;7.93;;;11.60;99.90;;;;;;5105086;28;20769;-74
2021/12/29 10:09:46;;;;;;;20.90;8.15;;;11.60;99.90;;;;;;5109047;28;20415;-73
2021/12/29 10:12:20;;;;;;;24.27;8.70;;;11.60;99.90;;;;;;5113096;27;20505;-71
2021/12/29 10:14:52;;;;;;;19.15;8.80;;;11.60;99.90;;;;;;5109499;27;20437;-73
2021/12/29 10:17:18;;;;;;;22.43;9.87;;;11.50;99.90;;;;;;5111465;27;20507;-70
2021/12/29 10:19:45;;;;;;;18.45;10.48;;;11.40;99.90;;;;;;5108446;27;20521;-73
2021/12/29 10:22:29;;;;;;;25.17;11.07;;;11.30;99.90;;;;;;5106041;27;20444;-75
2021/12/29 10:25:12;;;;;;;21.00;10.98;;;11.20;99.90;;;;;;5108682;27;20404;-73
2021/12/29 10:27:40;;;;;;;23.52;11.43;;;11.20;99.90;;;;;;5138452;27;20407;-71
2021/12/29 10:30:26;;;;;;;22.27;11.95;;;11.20;99.90;;;;;;5106715;28;20396;-73
2021/12/29 10:32:55;;;;;;;20.40;12.13;;;11.20;99.90;;;;;;5107408;27;20458;-73
2021/12/29 10:35:28;;;;;;;22.63;13.45;;;11.20;99.90;;;;;;5114347;27;20467;-71
2021/12/29 10:38:07;;;;;;;19.02;11.27;;;11.20;99.90;;;;;;5087430;28;21300;-72
2021/12/29 10:40:34;;;;;;;23.50;11.70;;;11.10;99.90;;;;;;5105772;28;20794;-73
2021/12/29 10:43:01;;;;;;;22.00;10.63;;;11.10;99.90;;;;;;5105387;28;20427;-73
2021/12/29 10:45:32;;;;;;;22.60;10.68;;;11.10;99.90;;;;;;5108034;28;21006;-73
2021/12/29 10:47:59;;;;;;;20.17;11.05;;;11.00;99.90;;;;;;5106131;28;20915;-74
2021/12/29 10:50:27;;;;;;;20.97;11.30;;;11.00;99.90;;;;;;5115500;27;20406;-75
2021/12/29 10:52:54;;;;;;;19.85;10.95;;;11.00;99.90;;;;;;5106510;27;20414;-74
2021/12/29 10:55:35;;;;;;;22.13;11.07;;;11.00;99.90;;;;;;5109077;27;20748;-72
2021/12/29 10:58:04;;;;;;;22.48;11.02;;;11.10;99.90;;;;;;5106241;28;20985;-72
2021/12/29 11:00:30;;;;;;;23.60;10.60;;;11.00;99.90;;;;;;5106326;28;20464;-74
2021/12/29 11:03:14;;;;;;;20.07;11.23;;;11.00;99.90;;;;;;5122288;27;20916;-72
2021/12/29 11:05:42;;;;;;;22.95;11.63;;;11.00;99.90;;;;;;5103934;28;20434;-72
2021/12/29 11:08:10;;;;;;;18.08;10.43;;;11.10;99.90;;;;;;5108418;28;20484;-72
2021/12/29 11:10:36;;;;;;;21.83;10.40;;;11.10;99.90;;;;;;5105366;27;20416;-74
2021/12/29 11:13:02;;;;;;;21.33;10.10;;;11.10;99.90;;;;;;5106076;28;20879;-71
2021/12/29 11:15:36;;;;;;;17.98;9.80;;;11.10;99.90;;;;;;5109669;28;20461;-72
2021/12/29 11:18:06;;;;;;;21.67;10.20;;;11.10;99.90;;;;;;5101120;28;20400;-72
2021/12/29 11:20:33;;;;;;;17.33;9.05;;;11.10;99.90;;;;;;5107954;28;20403;-71
2021/12/29 11:23:14;;;;;;;16.13;9.13;;;11.10;99.90;;;;;;5103322;28;20415;-74
2021/12/29 11:25:42;;;;;;;17.35;9.30;;;11.00;99.90;;;;;;5104376;28;20431;-72
2021/12/29 11:28:20;;;;;;;15.65;9.63;;;11.00;99.90;;;;;;5118257;28;20392;-72
2021/12/29 11:30:45;;;;;;;17.67;9.45;;;11.00;99.90;;;;;;5113349;28;20414;-73
2021/12/29 11:33:12;;;;;;;19.00;8.80;;;11.00;99.90;;;;;;5105903;28;20420;-72
2021/12/29 11:35:47;;;;;;;16.88;9.10;;;11.00;99.90;;;;;;5106840;28;20408;-73
2021/12/29 11:38:15;;;;;;;16.70;9.40;;;11.00;99.90;;;;;;5106200;28;21208;-74
2021/12/29 11:40:45;;;;;;;16.98;9.48;;;11.00;99.90;;;;;;5104925;28;20418;-75
2021/12/29 11:43:13;;;;;;;17.75;9.45;;;11.00;99.90;;;;;;5107306;28;20419;-76
2021/12/29 11:45:41;;;;;;;17.10;9.27;;;11.00;99.90;;;;;;5103296;28;20605;-73
2021/12/29 11:48:09;;;;;;;17.58;9.50;;;11.00;99.90;;;;;;5105983;28;20892;-75
2021/12/29 11:50:38;;;;;;;16.30;9.25;;;11.00;99.90;;;;;;5112844;27;20404;-74
2021/12/29 11:53:25;;;;;;;20.73;9.30;;;11.00;99.90;;;;;;5110183;27;20415;-71
2021/12/29 11:55:56;;;;;;;17.02;9.88;;;11.00;99.90;;;;;;5108623;28;20725;-74
2021/12/29 11:58:29;;;;;;;14.07;9.38;;;11.00;99.90;;;;;;5108347;28;20453;-75
2021/12/29 12:01:00;;;;;;;18.70;9.68;;;11.00;99.90;;;;;;5090343;27;20400;-71
2021/12/29 12:03:40;;;;;;;18.25;9.90;;;11.00;99.90;;;;;;5108873;27;20415;-72
2021/12/29 12:06:06;;;;;;;16.02;9.98;;;11.00;99.90;;;;;;5108198;28;20484;-75
2021/12/29 12:08:33;;;;;;;19.25;9.93;;;11.00;99.90;;;;;;5120549;27;20602;-74
2021/12/29 12:11:01;;;;;;;17.05;9.75;;;11.00;99.90;;;;;;5111030;27;21131;-75
2021/12/29 12:13:34;;;;;;;17.60;10.23;;;11.00;99.90;;;;;;5110376;28;20938;-72
2021/12/29 12:16:13;;;;;;;19.17;10.30;;;11.00;99.90;;;;;;5109603;27;20411;-71
2021/12/29 12:18:50;;;;;;;19.38;10.35;;;11.00;99.90;;;;;;5112943;27;20458;-72
2021/12/29 12:21:39;;;;;;;22.42;10.23;;;11.00;99.90;;;;;;5119964;27;20428;-73
2021/12/29 12:24:17;;;;;;;18.00;10.53;;;11.00;99.90;;;;;;5107708;28;20896;-72
2021/12/29 12:27:02;;;;;;;18.60;10.73;;;11.10;99.90;;;;;;5109081;28;20392;-72
2021/12/29 12:29:33;;;;;;;20.40;10.90;;;11.00;99.90;;;;;;5097383;28;20463;-74
2021/12/29 12:32:01;;;;;;;18.73;11.80;;;11.00;99.90;;;;;;5107487;27;21797;-74
2021/12/29 12:34:27;;;;;;;21.67;11.88;;;11.00;99.90;;;;;;5109053;28;20479;-74
2021/12/29 12:36:52;;;;;;;20.17;12.20;;;11.10;99.90;;;;;;5110435;27;20892;-76
2021/12/29 12:39:21;;;;;;;22.60;12.77;;;11.10;99.90;;;;;;5110928;28;20415;-72
2021/12/29 12:41:50;;;;;;;22.65;12.13;;;11.00;99.90;;;;;;5113165;27;21161;-71